»·PEaware :: SWA8101 KSFO-KSNA

SWA8101 :: KSFO-KSNA

FLIGHT INFORMATION

Flight Status: Arrived
Operator:
Southwest Airlines
More flights by this operator :: More flights under this callsign
Pilot: John M. (9732)
Aircraft: BOEING 737-800
(B738)
More flights by this aircraft type
Origin: KSFO San Francisco Intl
United States
Destination: KSNA John Wayne-Orange Co
United States
More flights between these airports :: More routes between these airports
Route: +SSTIK4 YYUNG TILLT TILLT2
File this flight plan on PilotEdge
Remarks: RMK / SIMBRIEF
Altitude:
(Current/Filed)
35,000ft
Speed:
(Current/Filed)
466kts
Departed: 10-Mar-19 07:49 PM
Arrived: 10-Mar-19 09:06 PM
Distance/Time
Traveled:
323nm/1:16
Distance/Time
To Go:
Arrived

Flight Plot

Page will automatically refresh every two minutes.

Flight plan parsing failed; only flown route is shown


Map Options




Map Legend


Flown Route
Filed Route
Departure Airport
Arrival Airport
Navaid (VOR, NDB)
Fix

Horizontal Profiles

Position Reports

Time Latitude Longitude Heading Altitude Ground
Speed
10-Mar-19 18:45 37.613355 -122.383656 211 21ft 0kts
10-Mar-19 18:46 37.613355 -122.383656 211 21ft 0kts
10-Mar-19 18:47 37.613355 -122.383656 211 21ft 0kts
10-Mar-19 18:48 37.613355 -122.383656 211 21ft 0kts
10-Mar-19 18:49 37.613355 -122.383656 211 21ft 0kts
10-Mar-19 18:50 37.613355 -122.383656 211 21ft 0kts
10-Mar-19 18:51 37.613355 -122.383656 211 21ft 0kts
10-Mar-19 18:52 37.613355 -122.383656 211 21ft 0kts
10-Mar-19 18:53 37.613355 -122.383656 211 21ft 0kts
10-Mar-19 18:54 37.613355 -122.383656 211 21ft 0kts
10-Mar-19 18:55 37.613355 -122.383656 211 21ft 0kts
10-Mar-19 18:56 37.613355 -122.383656 211 21ft 0kts
10-Mar-19 18:57 37.613355 -122.383656 211 21ft 0kts
10-Mar-19 18:58 37.613355 -122.383656 211 21ft 0kts
10-Mar-19 18:59 37.613355 -122.383656 211 21ft 0kts
10-Mar-19 19:00 37.613355 -122.383656 211 21ft 0kts
10-Mar-19 19:01 37.613355 -122.383656 211 21ft 0kts
10-Mar-19 19:02 37.613355 -122.383656 211 21ft 0kts
10-Mar-19 19:03 37.613355 -122.383656 211 21ft 0kts
10-Mar-19 19:04 37.613355 -122.383656 211 21ft 0kts
10-Mar-19 19:05 37.613355 -122.383656 211 21ft 0kts
10-Mar-19 19:06 37.613355 -122.383656 211 21ft 0kts
10-Mar-19 19:07 37.613355 -122.383656 211 21ft 0kts
10-Mar-19 19:08 37.613355 -122.383656 211 21ft 0kts
10-Mar-19 19:09 37.613355 -122.383656 211 21ft 0kts
10-Mar-19 19:10 37.613355 -122.383656 211 21ft 0kts
10-Mar-19 19:11 37.613355 -122.383656 211 21ft 0kts
10-Mar-19 19:12 37.613355 -122.383656 211 21ft 0kts
10-Mar-19 19:13 37.613355 -122.383656 211 21ft 0kts
10-Mar-19 19:14 37.613355 -122.383656 211 21ft 0kts
10-Mar-19 19:15 37.613355 -122.383656 211 21ft 0kts
10-Mar-19 19:16 37.613355 -122.383656 211 21ft 0kts
10-Mar-19 19:17 37.613355 -122.383656 211 21ft 0kts
10-Mar-19 19:18 37.613789 -122.383321 211 21ft 2kts
10-Mar-19 19:19 37.613901 -122.383235 211 21ft 0kts
10-Mar-19 19:20 37.613901 -122.383235 211 21ft 0kts
10-Mar-19 19:21 37.613901 -122.383235 211 21ft 0kts
10-Mar-19 19:22 37.613899 -122.383236 211 21ft 0kts
10-Mar-19 19:23 37.613893 -122.383241 211 21ft 0kts
10-Mar-19 19:24 37.613889 -122.383244 211 21ft 0kts
10-Mar-19 19:25 37.613887 -122.383246 211 21ft 0kts
10-Mar-19 19:26 37.613887 -122.383246 211 21ft 0kts
10-Mar-19 19:27 37.613885 -122.383247 211 21ft 0kts
10-Mar-19 19:28 37.613883 -122.383249 211 21ft 0kts
10-Mar-19 19:29 37.613880 -122.383251 211 21ft 0kts
10-Mar-19 19:30 37.613877 -122.383253 211 21ft 0kts
10-Mar-19 19:31 37.613875 -122.383255 211 21ft 0kts
10-Mar-19 19:32 37.613873 -122.383256 211 21ft 0kts
10-Mar-19 19:33 37.613870 -122.383259 211 21ft 0kts
10-Mar-19 19:34 37.613868 -122.383260 211 21ft 0kts
10-Mar-19 19:35 37.613865 -122.383263 211 21ft 0kts
10-Mar-19 19:36 37.613862 -122.383265 211 21ft 0kts
10-Mar-19 19:37 37.613858 -122.383268 211 21ft 0kts
10-Mar-19 19:38 37.613856 -122.383269 211 21ft 0kts
10-Mar-19 19:39 37.613854 -122.383271 211 21ft 0kts
10-Mar-19 19:40 37.613537 -122.383072 119 21ft 2kts
10-Mar-19 19:41 37.613497 -122.382988 121 21ft 0kts
10-Mar-19 19:42 37.613490 -122.382974 121 21ft 0kts
10-Mar-19 19:43 37.612946 -122.382266 163 21ft 5kts
10-Mar-19 19:44 37.611341 -122.383131 208 21ft 2kts
10-Mar-19 19:45 37.609477 -122.383534 121 21ft 5kts
10-Mar-19 19:46 37.609432 -122.383439 120 21ft 0kts
10-Mar-19 19:47 37.609019 -122.382407 91 21ft 9kts
10-Mar-19 19:48 37.623645 -122.372445 27 69ft 151kts
10-Mar-19 19:49 37.666457 -122.359553 354 2593ft 183kts
10-Mar-19 19:50 37.719383 -122.383590 314 4319ft 224kts
10-Mar-19 19:51 37.711182 -122.451957 213 5472ft 232kts
10-Mar-19 19:52 37.649308 -122.468542 174 5635ft 224kts
10-Mar-19 19:53 37.591637 -122.470073 181 9078ft 213kts
10-Mar-19 19:54 37.522664 -122.474766 181 10992ft 281kts
10-Mar-19 19:55 37.455850 -122.481520 185 12657ft 328kts
10-Mar-19 19:56 37.363552 -122.482668 156 15937ft 339kts
10-Mar-19 19:57 37.280949 -122.421079 151 18735ft 355kts
10-Mar-19 19:58 37.188830 -122.374559 157 19005ft 355kts
10-Mar-19 19:59 37.096005 -122.328642 157 20739ft 363kts
10-Mar-19 20:00 37.005672 -122.269138 138 23250ft 377kts
10-Mar-19 20:01 36.925205 -122.180120 138 25373ft 394kts
10-Mar-19 20:02 36.841480 -122.089179 138 27622ft 399kts
10-Mar-19 20:03 36.753465 -122.004080 145 29752ft 404kts
10-Mar-19 20:04 36.659262 -121.930377 149 31868ft 401kts
10-Mar-19 20:05 36.562183 -121.861449 144 33540ft 404kts
10-Mar-19 20:06 36.468422 -121.782713 145 35041ft 409kts
10-Mar-19 20:07 36.371453 -121.703623 146 35068ft 430kts
10-Mar-19 20:08 36.267163 -121.621496 147 35063ft 455kts
10-Mar-19 20:09 36.160302 -121.538013 147 35061ft 452kts
10-Mar-19 20:10 36.053776 -121.455412 147 35080ft 452kts
10-Mar-19 20:11 35.946973 -121.373096 148 35068ft 450kts
10-Mar-19 20:12 35.840417 -121.292130 149 35060ft 450kts
10-Mar-19 20:13 35.733684 -121.224920 155 35057ft 448kts
10-Mar-19 20:14 35.624706 -121.149741 149 35056ft 448kts
10-Mar-19 20:15 35.518795 -121.069448 145 35055ft 448kts
10-Mar-19 20:16 35.427153 -120.972147 139 35056ft 449kts
10-Mar-19 20:18 35.333200 -120.870971 140 35057ft 448kts
10-Mar-19 20:19 35.244172 -120.774767 140 35059ft 447kts
10-Mar-19 20:20 35.151525 -120.675159 140 35060ft 447kts
10-Mar-19 20:21 35.061752 -120.579118 140 35059ft 447kts
10-Mar-19 20:22 34.963766 -120.494863 149 35055ft 444kts
10-Mar-19 20:23 34.860343 -120.411616 149 34525ft 444kts
10-Mar-19 20:24 34.761427 -120.331974 149 33565ft 443kts
10-Mar-19 20:25 34.659026 -120.249768 150 32568ft 441kts
10-Mar-19 20:26 34.559455 -120.170310 150 31594ft 438kts
10-Mar-19 20:27 34.457886 -120.089442 151 30596ft 436kts
10-Mar-19 20:28 34.356505 -120.008694 151 29594ft 435kts
10-Mar-19 20:29 34.255513 -119.928283 151 28595ft 435kts
10-Mar-19 20:30 34.154180 -119.848216 151 27598ft 437kts
10-Mar-19 20:31 34.063326 -119.756096 131 26589ft 418kts
10-Mar-19 20:32 34.002031 -119.639390 126 25255ft 407kts
10-Mar-19 20:33 33.946432 -119.528987 126 23819ft 398kts
10-Mar-19 20:34 33.889574 -119.415921 124 22313ft 387kts
10-Mar-19 20:35 33.835656 -119.306727 124 20604ft 374kts
10-Mar-19 20:36 33.783143 -119.200661 123 18899ft 363kts
10-Mar-19 20:36 33.740521 -119.114737 122 17483ft 356kts
10-Mar-19 20:38 33.682599 -118.996991 122 15504ft 347kts
10-Mar-19 20:39 33.634865 -118.901186 122 13847ft 340kts
10-Mar-19 20:39 33.594614 -118.820675 121 12430ft 335kts
10-Mar-19 20:40 33.561524 -118.717976 101 10729ft 330kts
10-Mar-19 20:42 33.543552 -118.600719 100 8778ft 298kts
10-Mar-19 20:42 33.530786 -118.521723 100 7407ft 280kts
10-Mar-19 20:43 33.520491 -118.439201 91 6456ft 261kts
10-Mar-19 20:44 33.518739 -118.354411 91 5577ft 247kts
10-Mar-19 20:45 33.535855 -118.275560 67 5075ft 246kts
10-Mar-19 20:46 33.557046 -118.210529 68 4989ft 243kts
10-Mar-19 20:47 33.587859 -118.140076 54 4993ft 237kts
10-Mar-19 20:48 33.626089 -118.072769 55 4998ft 246kts
10-Mar-19 20:49 33.663494 -118.005683 56 4990ft 231kts
10-Mar-19 20:50 33.700729 -117.945442 37 4995ft 225kts
10-Mar-19 20:51 33.754915 -117.908914 27 4999ft 225kts
10-Mar-19 20:52 33.810253 -117.873948 27 4995ft 225kts
10-Mar-19 20:53 33.865247 -117.838905 27 4983ft 215kts
10-Mar-19 20:54 33.914423 -117.807536 27 4489ft 192kts
10-Mar-19 20:55 33.961249 -117.777632 27 3974ft 189kts
10-Mar-19 20:56 34.002196 -117.740755 84 3915ft 193kts
10-Mar-19 20:57 33.960864 -117.723773 191 4104ft 190kts
10-Mar-19 20:58 33.909232 -117.736423 191 3708ft 189kts
10-Mar-19 20:59 33.862053 -117.755409 203 2969ft 172kts
10-Mar-19 21:00 33.819123 -117.779172 206 2964ft 159kts
10-Mar-19 21:01 33.780609 -117.801999 206 2185ft 150kts
10-Mar-19 21:02 33.745280 -117.824441 209 1483ft 141kts
10-Mar-19 21:03 33.710581 -117.846734 208 717ft 140kts
10-Mar-19 21:04 33.676670 -117.868204 207 64ft 116kts
10-Mar-19 21:05 33.669592 -117.872040 153 64ft 0kts
10-Mar-19 21:06 33.669502 -117.871978 146 64ft 0kts
10-Mar-19 21:07 33.669500 -117.871976 146 64ft 0kts
10-Mar-19 21:08 33.669304 -117.871825 146 64ft 0kts
10-Mar-19 21:09 33.669605 -117.870445 36 64ft 14kts
10-Mar-19 21:10 33.672478 -117.867926 27 64ft 11kts
10-Mar-19 21:11 33.675276 -117.865739 27 64ft 17kts
10-Mar-19 21:12 33.678600 -117.863689 45 64ft 0kts
10-Mar-19 21:13 33.678600 -117.863689 45 64ft 0kts
10-Mar-19 21:14 33.678600 -117.863689 45 64ft 0kts

Navigation Log

Ident Type
Flight plan parsing failed, navigation log unavailable